createdAt,value
2019-06-10T00:06:52.815Z,4.77
2019-06-10T00:15:10.834Z,15.73
2019-06-10T00:23:28.579Z,11.90
2019-06-10T00:31:46.093Z,5.87
2019-06-10T00:40:05.496Z,6.72
2019-06-10T00:48:28.844Z,6.10
2019-06-10T00:56:42.508Z,11.40
2019-06-10T01:05:00.825Z,4.20
2019-06-10T01:13:20.840Z,5.03
2019-06-10T01:21:37.995Z,4.00
2019-06-10T01:29:55.685Z,9.73
2019-06-10T01:38:28.306Z,9.00
2019-06-10T01:46:46.034Z,6.37
2019-06-10T01:55:03.994Z,5.10
2019-06-10T02:03:24.065Z,7.83
2019-06-10T02:11:41.397Z,8.47
2019-06-10T02:20:01.145Z,6.33
2019-06-10T02:28:19.705Z,9.50
2019-06-10T02:36:38.098Z,14.33
2019-06-10T02:44:58.463Z,5.80
2019-06-10T02:53:17.294Z,18.77
2019-06-10T03:01:38.145Z,8.60
2019-06-10T03:09:54.242Z,12.90
2019-06-10T03:27:12.663Z,8.60
2019-06-10T03:35:30.171Z,10.23
2019-06-10T03:43:47.606Z,11.07
2019-06-10T03:52:05.103Z,11.50
2019-06-10T04:00:24.504Z,12.07
2019-06-10T04:08:43.364Z,18.83
2019-06-10T04:17:10.400Z,9.40
2019-06-10T04:25:29.413Z,17.03
2019-06-10T04:33:47.067Z,10.30
2019-06-10T04:42:04.767Z,9.80
2019-06-10T04:50:33.085Z,12.77
2019-06-10T04:58:43.361Z,11.80
2019-06-10T05:07:02.132Z,12.30
2019-06-10T05:24:19.723Z,9.97
2019-06-10T05:32:37.395Z,10.97
2019-06-10T05:40:54.862Z,12.50
2019-06-10T05:49:12.628Z,13.93
2019-06-10T05:57:33.471Z,8.00
2019-06-10T06:05:49.688Z,9.80
2019-06-10T06:14:07.150Z,9.27
2019-06-10T06:22:25.316Z,9.88
2019-06-10T06:39:42.904Z,12.97
2019-06-10T06:48:02.868Z,12.43
2019-06-10T06:56:19.802Z,10.57
2019-06-10T07:04:38.669Z,9.07
2019-06-10T07:12:57.941Z,8.40
2019-06-10T07:21:15.382Z,6.10
2019-06-10T07:29:34.270Z,6.83
2019-06-10T07:37:52.429Z,8.13
2019-06-10T07:46:13.015Z,8.17
2019-06-10T07:54:29.163Z,7.63
2019-06-10T08:02:46.733Z,10.57
2019-06-10T08:11:04.150Z,8.00
2019-06-10T08:19:34.375Z,10.70
2019-06-10T08:27:45.379Z,8.50
2019-06-10T08:36:03.634Z,10.10
2019-06-10T08:44:20.068Z,8.77
2019-06-10T08:52:50.566Z,11.03
2019-06-10T09:00:57.109Z,9.60
2019-06-10T09:09:14.611Z,10.83
2019-06-10T09:17:33.731Z,7.50
2019-06-10T09:25:54.464Z,11.73
2019-06-10T09:34:12.728Z,15.17
2019-06-10T09:42:29.883Z,9.00
2019-06-10T09:50:51.368Z,9.47
2019-06-10T09:59:08.596Z,14.10
2019-06-10T10:07:26.299Z,8.77
2019-06-10T10:15:44.067Z,11.03
2019-06-10T10:33:02.755Z,9.27
2019-06-10T10:41:19.898Z,12.20
2019-06-10T10:49:37.410Z,13.00
2019-06-10T10:57:55.847Z,12.30
2019-06-10T11:06:13.805Z,9.93
2019-06-10T11:14:34.005Z,8.27
2019-06-10T11:22:51.581Z,14.97
2019-06-10T11:31:09.886Z,11.47
2019-06-10T11:39:27.619Z,8.93
2019-06-10T11:47:45.229Z,12.87
2019-06-10T11:56:03.050Z,12.20
2019-06-10T12:04:21.638Z,28.40
2019-06-10T12:12:39.789Z,14.27
2019-06-10T12:21:03.762Z,11.73
2019-06-10T12:29:19.693Z,13.00
2019-06-10T12:37:37.325Z,12.10
2019-06-10T12:45:56.303Z,12.47
2019-06-10T12:54:13.999Z,11.10
2019-06-10T13:02:34.580Z,9.50
2019-06-10T13:10:53.176Z,12.23
2019-06-10T13:19:12.379Z,14.57
2019-06-10T13:27:29.382Z,17.47
2019-06-10T13:35:46.881Z,11.60
2019-06-10T13:44:06.234Z,12.50
2019-06-10T14:01:24.255Z,12.75
2019-06-10T14:09:41.743Z,11.57
2019-06-10T14:17:59.331Z,12.07
2019-06-10T14:26:17.207Z,21.03
2019-06-10T14:34:36.040Z,10.20
2019-06-10T14:42:53.532Z,12.10
2019-06-10T14:51:14.023Z,20.57
2019-06-10T14:59:30.360Z,12.90
2019-06-10T15:07:48.083Z,12.00
2019-06-10T15:25:05.288Z,14.63
2019-06-10T15:33:23.909Z,9.10
2019-06-10T15:41:42.900Z,11.27
2019-06-10T15:50:03.013Z,11.83
2019-06-10T15:58:21.776Z,9.80
2019-06-10T16:06:39.378Z,14.00
2019-06-10T16:14:56.841Z,16.40
2019-06-10T16:23:15.510Z,15.43
2019-06-10T16:31:36.630Z,21.73
2019-06-10T16:39:54.084Z,10.47
2019-06-10T16:48:13.008Z,20.13
2019-06-10T16:56:33.386Z,13.80
2019-06-10T17:13:49.523Z,17.63
2019-06-10T17:22:06.991Z,14.47
2019-06-10T17:30:25.573Z,17.13
2019-06-10T17:38:43.774Z,11.37
2019-06-10T17:47:02.244Z,12.00
2019-06-10T17:55:20.359Z,14.40
2019-06-10T18:03:40.003Z,17.13
2019-06-10T18:11:57.065Z,15.70
2019-06-10T18:20:14.592Z,18.30
2019-06-10T18:28:35.967Z,19.67
2019-06-10T18:36:52.142Z,16.52
2019-06-10T18:45:10.155Z,14.23
2019-06-10T18:53:28.445Z,17.20
2019-06-10T19:01:45.993Z,14.90
2019-06-10T19:10:03.630Z,15.37
2019-06-10T19:18:23.289Z,20.10
2019-06-10T19:26:44.789Z,14.77
2019-06-10T19:35:02.693Z,26.60
2019-06-10T19:43:34.532Z,16.10
2019-06-10T19:51:52.607Z,20.50
2019-06-10T20:00:12.528Z,20.60
2019-06-10T20:08:29.214Z,31.20
2019-06-10T20:16:48.161Z,23.50
2019-06-10T20:25:05.754Z,18.33
2019-06-10T20:33:37.038Z,18.10
2019-06-10T20:42:26.236Z,20.93
2019-06-10T20:50:46.844Z,17.20
2019-06-10T20:59:03.616Z,17.07
2019-06-10T21:07:23.239Z,19.53
2019-06-10T21:15:45.658Z,23.37
2019-06-10T21:24:02.258Z,18.40
2019-06-10T21:32:19.356Z,19.77
2019-06-10T21:40:36.783Z,26.80
2019-06-10T21:48:55.875Z,23.20
2019-06-10T21:57:13.676Z,26.73
2019-06-10T22:05:33.179Z,21.60
2019-06-10T22:13:52.846Z,31.37
2019-06-10T22:22:09.723Z,24.70
2019-06-10T22:30:27.212Z,23.20
2019-06-10T22:38:45.761Z,34.80
2019-06-10T22:47:03.224Z,33.10
2019-06-10T22:55:20.667Z,37.70
2019-06-10T23:03:38.124Z,31.00
2019-06-10T23:11:56.452Z,34.10
2019-06-10T23:20:14.799Z,36.13
2019-06-10T23:28:32.794Z,36.90
2019-06-10T23:36:54.541Z,33.23
2019-06-10T23:45:10.008Z,32.77
2019-06-10T23:53:27.475Z,39.03
